createdAt,value
2018-03-31T00:00:02.720Z,0.00
2018-03-31T00:01:02.639Z,0.00
2018-03-31T00:02:02.564Z,0.00
2018-03-31T00:03:02.483Z,0.00
2018-03-31T00:04:02.401Z,0.00
2018-03-31T00:05:02.319Z,0.00
2018-03-31T00:06:02.240Z,0.00
2018-03-31T00:07:02.158Z,0.00
2018-03-31T00:08:02.080Z,0.00
2018-03-31T00:09:01.998Z,0.00
2018-03-31T00:10:01.932Z,0.00
2018-03-31T00:11:01.845Z,0.00
2018-03-31T00:12:01.763Z,0.00
2018-03-31T00:13:01.681Z,0.00
2018-03-31T00:14:01.604Z,0.00
2018-03-31T00:15:01.519Z,0.00
2018-03-31T00:16:01.441Z,0.00
2018-03-31T00:17:01.361Z,0.00
2018-03-31T00:18:01.281Z,0.00
2018-03-31T00:19:01.203Z,0.00
2018-03-31T00:20:01.120Z,0.00
2018-03-31T00:21:01.087Z,0.00
2018-03-31T00:22:00.965Z,0.00
2018-03-31T00:23:00.888Z,0.00
2018-03-31T00:24:00.809Z,0.00
2018-03-31T00:25:00.722Z,0.00
2018-03-31T00:26:00.640Z,0.00
2018-03-31T00:27:00.559Z,0.00
2018-03-31T00:28:00.482Z,0.00
2018-03-31T00:29:00.408Z,0.00
2018-03-31T00:30:00.333Z,0.00
2018-03-31T00:31:00.293Z,0.00
2018-03-31T00:32:00.160Z,0.00
2018-03-31T00:33:00.080Z,0.00
2018-03-31T00:34:00.011Z,0.00
2018-03-31T00:34:59.918Z,0.00
2018-03-31T00:35:59.859Z,0.00
2018-03-31T00:36:59.766Z,0.00
2018-03-31T00:37:59.693Z,0.00
2018-03-31T00:38:59.608Z,0.00
2018-03-31T00:39:59.521Z,0.00
2018-03-31T00:40:59.443Z,0.00
2018-03-31T00:41:59.384Z,0.00
2018-03-31T00:42:59.283Z,0.00
2018-03-31T00:43:59.206Z,0.00
2018-03-31T00:44:59.129Z,0.00
2018-03-31T00:45:59.044Z,0.00
2018-03-31T00:46:58.959Z,0.00
2018-03-31T00:47:58.882Z,0.00
2018-03-31T00:48:58.800Z,0.00
2018-03-31T00:49:58.721Z,0.00
2018-03-31T00:50:58.638Z,0.00
2018-03-31T00:51:58.561Z,0.00
2018-03-31T00:52:58.479Z,0.00
2018-03-31T00:53:58.402Z,0.00
2018-03-31T00:54:58.324Z,0.00
2018-03-31T00:55:58.264Z,0.00
2018-03-31T00:56:58.158Z,0.00
2018-03-31T00:57:58.079Z,0.00
2018-03-31T00:58:57.999Z,0.00
2018-03-31T00:59:57.919Z,0.00
2018-03-31T01:00:57.848Z,0.00
2018-03-31T01:01:57.759Z,0.00
2018-03-31T01:02:57.677Z,0.00
2018-03-31T01:03:57.604Z,0.00
2018-03-31T01:04:57.521Z,0.00
2018-03-31T01:05:57.440Z,0.00
2018-03-31T01:06:57.372Z,0.00
2018-03-31T01:07:57.277Z,0.00
2018-03-31T01:08:57.199Z,0.00
2018-03-31T01:09:57.119Z,0.00
2018-03-31T01:10:57.065Z,0.00
2018-03-31T01:11:56.956Z,0.00
2018-03-31T01:12:56.878Z,0.00
2018-03-31T01:13:56.800Z,0.00
2018-03-31T01:14:56.716Z,0.00
2018-03-31T01:15:56.645Z,0.00
2018-03-31T01:16:56.558Z,0.00
2018-03-31T01:17:56.476Z,0.00
2018-03-31T01:18:56.396Z,0.00
2018-03-31T01:19:56.316Z,0.00
2018-03-31T01:20:56.236Z,0.00
2018-03-31T01:21:56.156Z,0.00
2018-03-31T01:22:56.075Z,0.00
2018-03-31T01:23:55.995Z,0.00
2018-03-31T01:24:55.917Z,0.00
2018-03-31T01:25:55.834Z,0.00
2018-03-31T01:26:55.751Z,0.00
2018-03-31T01:27:55.673Z,0.00
2018-03-31T01:28:55.614Z,0.00
2018-03-31T01:29:55.511Z,0.00
2018-03-31T01:30:55.443Z,0.00
2018-03-31T01:31:55.352Z,0.00
2018-03-31T01:32:55.270Z,0.00
2018-03-31T01:33:55.190Z,0.00
2018-03-31T01:34:55.110Z,0.00
2018-03-31T01:35:55.051Z,0.00
2018-03-31T01:36:54.949Z,0.00
2018-03-31T01:37:54.898Z,0.00
2018-03-31T01:38:54.789Z,0.00
2018-03-31T01:39:54.708Z,0.00
2018-03-31T01:40:54.626Z,0.00
2018-03-31T01:41:54.547Z,0.00
2018-03-31T01:42:54.465Z,0.00
2018-03-31T01:43:54.385Z,0.00
2018-03-31T01:44:54.312Z,0.00
2018-03-31T01:45:54.226Z,0.00
2018-03-31T01:46:54.150Z,0.00
2018-03-31T01:47:54.062Z,0.00
2018-03-31T01:48:53.984Z,0.00
2018-03-31T01:49:53.904Z,0.00
2018-03-31T01:50:53.840Z,0.00
2018-03-31T01:51:53.745Z,0.00
2018-03-31T01:52:53.662Z,0.00
2018-03-31T01:53:53.601Z,0.00
2018-03-31T01:54:53.506Z,0.00
2018-03-31T01:55:53.426Z,0.00
2018-03-31T01:56:53.344Z,0.00
2018-03-31T01:57:53.280Z,0.00
2018-03-31T01:58:53.191Z,0.00
2018-03-31T01:59:53.110Z,0.00
2018-03-31T02:00:53.023Z,0.00
2018-03-31T02:01:52.938Z,0.00
2018-03-31T02:02:52.860Z,0.00
2018-03-31T02:03:52.792Z,0.00
2018-03-31T02:04:52.705Z,0.00
2018-03-31T02:05:52.628Z,0.00
2018-03-31T02:06:52.540Z,0.00
2018-03-31T02:07:52.457Z,0.00
2018-03-31T02:08:52.377Z,0.00
2018-03-31T02:09:52.296Z,0.00
2018-03-31T02:10:52.222Z,0.00
2018-03-31T02:11:52.140Z,0.00
2018-03-31T02:12:52.055Z,0.00
2018-03-31T02:13:51.977Z,0.00
2018-03-31T02:14:51.897Z,0.00
2018-03-31T02:15:51.813Z,0.00
2018-03-31T02:16:51.756Z,0.00
2018-03-31T02:17:51.654Z,0.00
2018-03-31T02:18:51.573Z,0.00
2018-03-31T02:19:51.496Z,0.00
2018-03-31T02:20:51.423Z,0.00
2018-03-31T02:21:51.334Z,0.00
2018-03-31T02:22:51.252Z,0.00
2018-03-31T02:23:51.172Z,0.00
2018-03-31T02:24:51.092Z,0.00
2018-03-31T02:25:51.009Z,0.00
2018-03-31T02:26:50.928Z,0.00
2018-03-31T02:27:50.849Z,0.00
2018-03-31T02:28:50.767Z,0.00
2018-03-31T02:29:50.689Z,0.00
2018-03-31T02:30:50.607Z,0.00
2018-03-31T02:31:50.528Z,0.00
2018-03-31T02:32:50.447Z,0.00
2018-03-31T02:33:50.370Z,0.00
2018-03-31T02:34:50.292Z,0.00
2018-03-31T02:35:50.206Z,0.00
2018-03-31T02:36:50.127Z,0.00
2018-03-31T02:37:50.057Z,0.00
2018-03-31T02:38:49.972Z,0.00
2018-03-31T02:39:49.882Z,0.00
2018-03-31T02:40:49.802Z,0.00
2018-03-31T02:41:49.721Z,0.00
2018-03-31T02:42:49.664Z,0.00
2018-03-31T02:43:49.563Z,0.00
2018-03-31T02:44:49.480Z,0.00
2018-03-31T02:45:49.418Z,0.00
2018-03-31T02:46:49.321Z,0.00
2018-03-31T02:47:49.242Z,0.00
2018-03-31T02:48:49.160Z,0.00
2018-03-31T02:49:49.103Z,0.00
2018-03-31T02:50:49.000Z,0.00
2018-03-31T02:51:48.923Z,0.00
2018-03-31T02:52:48.848Z,0.00
2018-03-31T02:53:48.758Z,0.00
2018-03-31T02:54:48.676Z,0.00
2018-03-31T02:55:48.605Z,0.00
2018-03-31T02:56:48.516Z,0.00
2018-03-31T02:57:48.438Z,0.00
2018-03-31T02:58:48.357Z,0.00
2018-03-31T02:59:48.276Z,0.00
2018-03-31T03:00:48.196Z,0.00
2018-03-31T03:01:48.114Z,0.00
2018-03-31T03:02:48.035Z,0.00
2018-03-31T03:03:47.954Z,0.00
2018-03-31T03:04:47.876Z,0.00
2018-03-31T03:05:47.795Z,0.00
2018-03-31T03:06:47.713Z,0.00
2018-03-31T03:07:47.631Z,0.00
2018-03-31T03:08:47.552Z,0.00
2018-03-31T03:09:47.481Z,0.00
2018-03-31T03:10:47.395Z,0.00
2018-03-31T03:11:47.315Z,0.00
2018-03-31T03:12:47.236Z,0.00
2018-03-31T03:13:47.151Z,0.00
2018-03-31T03:14:47.074Z,0.00
2018-03-31T03:15:46.990Z,0.00
2018-03-31T03:16:46.913Z,0.00
2018-03-31T03:17:46.837Z,0.00
2018-03-31T03:18:46.750Z,0.00
2018-03-31T03:19:46.670Z,0.00
2018-03-31T03:20:46.591Z,0.00
2018-03-31T03:21:46.518Z,0.00
2018-03-31T03:22:46.431Z,0.00
2018-03-31T03:23:46.352Z,0.00
2018-03-31T03:24:46.270Z,0.00
2018-03-31T03:25:46.189Z,0.00
2018-03-31T03:26:46.111Z,0.00
2018-03-31T03:27:46.033Z,0.00
2018-03-31T03:28:45.949Z,0.00
2018-03-31T03:29:45.872Z,0.00
2018-03-31T03:30:45.791Z,0.00
2018-03-31T03:31:45.711Z,0.00
2018-03-31T03:32:45.629Z,0.00
2018-03-31T03:33:45.552Z,0.00
2018-03-31T03:34:45.469Z,0.00
2018-03-31T03:35:45.404Z,0.00
2018-03-31T03:36:45.312Z,0.00
2018-03-31T03:37:45.229Z,0.00
2018-03-31T03:38:45.150Z,0.00
2018-03-31T03:39:45.070Z,0.00
2018-03-31T03:40:45.004Z,0.00
2018-03-31T03:41:44.908Z,0.00
2018-03-31T03:42:44.829Z,0.00
2018-03-31T03:43:44.752Z,0.00
2018-03-31T03:44:44.671Z,0.00
2018-03-31T03:45:44.588Z,0.00
2018-03-31T03:46:44.517Z,0.00
2018-03-31T03:47:44.428Z,0.00
2018-03-31T03:48:44.355Z,0.00
2018-03-31T03:49:44.269Z,0.00
2018-03-31T03:50:44.187Z,0.00
2018-03-31T03:51:44.109Z,0.00
2018-03-31T03:52:44.030Z,0.00
2018-03-31T03:53:43.953Z,0.00
2018-03-31T03:54:43.868Z,0.00
2018-03-31T03:55:43.804Z,0.00
2018-03-31T03:56:43.710Z,0.00
2018-03-31T03:57:43.632Z,0.00
2018-03-31T03:58:43.551Z,0.00
2018-03-31T03:59:43.474Z,0.00
2018-03-31T04:00:43.389Z,0.00
2018-03-31T04:01:43.308Z,0.00
2018-03-31T04:02:43.228Z,0.00
2018-03-31T04:03:43.150Z,0.00
2018-03-31T04:04:43.072Z,0.00
2018-03-31T04:05:42.990Z,0.00
2018-03-31T04:06:42.910Z,0.00
2018-03-31T04:07:42.829Z,0.00
2018-03-31T04:08:42.750Z,0.00
2018-03-31T04:09:42.675Z,0.00
2018-03-31T04:10:42.592Z,0.00
2018-03-31T04:11:42.510Z,0.00
2018-03-31T04:12:42.437Z,0.00
2018-03-31T04:13:42.351Z,0.00
2018-03-31T04:14:42.280Z,0.00
2018-03-31T04:15:42.190Z,0.00
2018-03-31T04:16:42.114Z,0.00
2018-03-31T04:17:42.032Z,0.00
2018-03-31T04:18:41.961Z,0.00
2018-03-31T04:19:41.873Z,0.00
2018-03-31T04:20:41.791Z,0.00
2018-03-31T04:21:41.712Z,0.00
2018-03-31T04:22:41.633Z,0.00
2018-03-31T04:23:41.554Z,0.00
2018-03-31T04:24:41.473Z,0.00
2018-03-31T04:25:41.395Z,0.00
2018-03-31T04:26:41.312Z,0.00
2018-03-31T04:27:41.233Z,0.00
2018-03-31T04:28:41.173Z,0.00
2018-03-31T04:29:41.083Z,0.00
2018-03-31T04:30:40.995Z,0.00
2018-03-31T04:31:40.924Z,0.00
2018-03-31T04:32:40.837Z,0.00
2018-03-31T04:33:40.757Z,0.00
2018-03-31T04:34:40.688Z,0.00
2018-03-31T04:35:40.597Z,0.00
2018-03-31T04:36:40.517Z,0.00
2018-03-31T04:37:40.435Z,0.00
2018-03-31T04:38:40.359Z,0.00
2018-03-31T04:39:40.275Z,0.00
2018-03-31T04:40:40.197Z,0.00
2018-03-31T04:41:40.119Z,0.00
2018-03-31T04:42:40.037Z,0.00
2018-03-31T04:43:39.959Z,0.00
2018-03-31T04:44:39.889Z,0.00
2018-03-31T04:45:39.797Z,0.00
2018-03-31T04:46:39.718Z,0.00
2018-03-31T04:47:39.645Z,0.00
2018-03-31T04:48:39.557Z,0.00
2018-03-31T04:49:39.479Z,0.00
2018-03-31T04:50:39.397Z,0.00
2018-03-31T04:51:39.323Z,0.00
2018-03-31T04:52:39.237Z,0.00
2018-03-31T04:53:39.157Z,0.00
2018-03-31T04:54:39.080Z,0.00
2018-03-31T04:55:38.997Z,0.00
2018-03-31T04:56:38.919Z,0.00
2018-03-31T04:57:38.847Z,0.00
2018-03-31T04:58:38.757Z,0.00
2018-03-31T04:59:38.679Z,0.00
2018-03-31T05:00:38.599Z,0.00
2018-03-31T05:01:38.521Z,0.00
2018-03-31T05:02:38.452Z,0.00
2018-03-31T05:03:38.359Z,0.00
2018-03-31T05:04:38.285Z,0.00
2018-03-31T05:05:38.200Z,0.00
2018-03-31T05:06:38.118Z,0.00
2018-03-31T05:07:38.041Z,0.00
2018-03-31T05:08:37.958Z,0.00
2018-03-31T05:09:37.879Z,0.00
2018-03-31T05:10:37.798Z,0.00
2018-03-31T05:11:37.722Z,0.00
2018-03-31T05:12:37.639Z,5.63
2018-03-31T05:13:37.562Z,5.63
2018-03-31T05:14:37.479Z,5.63
2018-03-31T05:15:37.408Z,5.63
2018-03-31T05:16:37.320Z,5.63
2018-03-31T05:17:37.241Z,5.63
2018-03-31T05:18:37.160Z,5.63
2018-03-31T05:19:37.079Z,5.63
2018-03-31T05:20:37.002Z,5.63
2018-03-31T05:21:36.929Z,5.63
2018-03-31T05:22:36.836Z,5.63
2018-03-31T05:23:36.766Z,5.63
2018-03-31T05:24:36.681Z,11.25
2018-03-31T05:25:36.599Z,11.25
2018-03-31T05:26:36.519Z,11.25
2018-03-31T05:27:36.443Z,11.25
2018-03-31T05:28:36.359Z,11.25
2018-03-31T05:29:36.339Z,11.25
2018-03-31T05:30:36.204Z,11.25
2018-03-31T05:31:36.119Z,11.25
2018-03-31T05:32:36.047Z,11.25
2018-03-31T05:33:35.959Z,11.25
2018-03-31T05:34:35.878Z,11.25
2018-03-31T05:35:35.801Z,11.25
2018-03-31T05:36:35.720Z,11.25
2018-03-31T05:37:35.645Z,11.25
2018-03-31T05:38:35.558Z,11.25
2018-03-31T05:39:35.483Z,11.25
2018-03-31T05:40:35.420Z,11.25
2018-03-31T05:41:35.320Z,11.25
2018-03-31T05:42:35.241Z,11.25
2018-03-31T05:43:35.177Z,11.25
2018-03-31T05:44:35.080Z,11.25
2018-03-31T05:45:35.001Z,16.88
2018-03-31T05:46:34.925Z,16.88
2018-03-31T05:47:34.843Z,11.25
2018-03-31T05:48:34.817Z,11.25
2018-03-31T05:49:34.682Z,11.25
2018-03-31T05:50:34.599Z,11.25
2018-03-31T05:51:34.522Z,11.25
2018-03-31T05:52:34.438Z,11.25
2018-03-31T05:53:34.360Z,16.88
2018-03-31T05:54:34.288Z,16.88
2018-03-31T05:55:34.199Z,16.88
2018-03-31T05:56:34.120Z,16.88
2018-03-31T05:57:34.041Z,16.88
2018-03-31T05:58:33.958Z,22.50
2018-03-31T05:59:33.883Z,22.50
2018-03-31T06:00:33.802Z,22.50
2018-03-31T06:01:33.725Z,28.13
2018-03-31T06:02:33.648Z,28.13
2018-03-31T06:03:33.619Z,33.75
2018-03-31T06:04:33.480Z,33.75
2018-03-31T06:05:33.402Z,39.38
2018-03-31T06:06:33.319Z,39.38
2018-03-31T06:07:33.249Z,39.38
2018-03-31T06:08:33.158Z,39.38
2018-03-31T06:09:33.082Z,39.38
2018-03-31T06:10:33.000Z,39.38
2018-03-31T06:11:32.928Z,45.00
2018-03-31T06:12:32.841Z,45.00
2018-03-31T06:13:32.775Z,45.00
2018-03-31T06:14:32.681Z,39.38
2018-03-31T06:15:32.600Z,39.38
2018-03-31T06:16:32.519Z,39.38
2018-03-31T06:17:32.440Z,33.75
2018-03-31T06:18:32.357Z,33.75
2018-03-31T06:19:32.281Z,39.38
2018-03-31T06:20:32.210Z,39.38
2018-03-31T06:21:32.119Z,39.38
2018-03-31T06:22:32.255Z,45.00
2018-03-31T06:23:31.960Z,45.00
2018-03-31T06:24:31.880Z,50.63
2018-03-31T06:25:31.818Z,56.25
2018-03-31T06:26:31.723Z,61.88
2018-03-31T06:27:31.645Z,61.88
2018-03-31T06:28:31.560Z,73.13
2018-03-31T06:29:31.490Z,78.75
2018-03-31T06:30:31.460Z,84.38
2018-03-31T06:31:31.323Z,90.00
2018-03-31T06:32:31.240Z,84.38
2018-03-31T06:33:31.229Z,78.75
2018-03-31T06:34:31.110Z,78.75
2018-03-31T06:35:31.011Z,78.75
2018-03-31T06:36:30.990Z,84.38
2018-03-31T06:37:30.840Z,84.38
2018-03-31T06:38:30.785Z,78.75
2018-03-31T06:39:30.680Z,78.75
2018-03-31T06:40:30.602Z,78.75
2018-03-31T06:41:30.521Z,73.13
2018-03-31T06:42:30.441Z,78.75
2018-03-31T06:43:30.360Z,78.75
2018-03-31T06:44:30.303Z,78.75
2018-03-31T06:45:30.203Z,78.75
2018-03-31T06:46:30.123Z,73.13
2018-03-31T06:47:30.061Z,67.50
2018-03-31T06:48:29.976Z,67.50
2018-03-31T06:49:29.881Z,61.88
2018-03-31T06:50:29.884Z,61.88
2018-03-31T06:51:29.731Z,61.88
2018-03-31T06:52:29.662Z,61.88
2018-03-31T06:53:29.561Z,61.88
2018-03-31T06:54:29.485Z,61.88
2018-03-31T06:55:29.404Z,61.88
2018-03-31T06:56:29.326Z,67.50
2018-03-31T06:57:29.245Z,67.50
2018-03-31T06:58:29.164Z,73.13
2018-03-31T06:59:29.113Z,78.75
2018-03-31T07:00:29.004Z,78.75
2018-03-31T07:01:28.927Z,73.13
2018-03-31T07:02:28.862Z,67.50
2018-03-31T07:03:28.763Z,73.13
2018-03-31T07:04:28.686Z,78.75
2018-03-31T07:05:28.608Z,90.00
2018-03-31T07:06:28.541Z,95.63
2018-03-31T07:07:28.452Z,95.63
2018-03-31T07:08:28.363Z,95.63
2018-03-31T07:09:28.291Z,95.63
2018-03-31T07:10:28.210Z,95.63
2018-03-31T07:11:28.144Z,95.63
2018-03-31T07:12:28.056Z,95.63
2018-03-31T07:13:27.964Z,101.25
2018-03-31T07:14:27.892Z,95.63
2018-03-31T07:15:27.850Z,95.63
2018-03-31T07:16:27.727Z,90.00
2018-03-31T07:17:27.647Z,90.00
2018-03-31T07:18:27.575Z,84.38
2018-03-31T07:19:27.486Z,95.63
2018-03-31T07:20:27.407Z,95.63
2018-03-31T07:21:27.326Z,95.63
2018-03-31T07:22:27.246Z,84.38
2018-03-31T07:23:27.167Z,84.38
2018-03-31T07:24:27.109Z,78.75
2018-03-31T07:25:27.044Z,78.75
2018-03-31T07:26:26.926Z,73.13
2018-03-31T07:27:26.881Z,73.13
2018-03-31T07:28:26.768Z,73.13
2018-03-31T07:29:26.689Z,78.75
2018-03-31T07:30:26.611Z,78.75
2018-03-31T07:31:26.540Z,67.50
2018-03-31T07:32:26.449Z,67.50
2018-03-31T07:33:26.374Z,67.50
2018-03-31T07:34:26.292Z,67.50
2018-03-31T07:35:26.209Z,73.13
2018-03-31T07:36:26.132Z,78.75
2018-03-31T07:37:26.051Z,84.38
2018-03-31T07:38:25.971Z,84.38
2018-03-31T07:39:25.891Z,84.38
2018-03-31T07:40:25.826Z,90.00
2018-03-31T07:41:25.733Z,84.38
2018-03-31T07:42:25.653Z,78.75
2018-03-31T07:43:25.581Z,78.75
2018-03-31T07:44:25.493Z,73.13
2018-03-31T07:45:25.413Z,73.13
2018-03-31T07:46:25.335Z,67.50
2018-03-31T07:47:25.254Z,67.50
2018-03-31T07:48:25.175Z,61.88
2018-03-31T07:49:25.134Z,67.50
2018-03-31T07:50:25.015Z,67.50
2018-03-31T07:51:24.940Z,67.50
2018-03-31T07:52:24.856Z,78.75
2018-03-31T07:53:24.800Z,90.00
2018-03-31T07:54:24.697Z,67.50
2018-03-31T07:55:24.624Z,106.88
2018-03-31T07:56:24.557Z,101.25
2018-03-31T07:57:24.462Z,90.00
2018-03-31T07:58:24.380Z,95.63
2018-03-31T07:59:24.298Z,101.25
2018-03-31T08:00:24.218Z,106.88
2018-03-31T08:01:24.137Z,95.63
2018-03-31T08:02:24.056Z,101.25
2018-03-31T08:03:23.979Z,118.13
2018-03-31T08:04:23.898Z,129.38
2018-03-31T08:05:24.020Z,151.88
2018-03-31T08:06:23.745Z,163.13
2018-03-31T08:07:23.664Z,180.00
2018-03-31T08:08:23.579Z,196.88
2018-03-31T08:09:23.504Z,196.88
2018-03-31T08:10:23.422Z,196.88
2018-03-31T08:11:23.342Z,180.00
2018-03-31T08:12:23.263Z,140.63
2018-03-31T08:13:23.180Z,123.75
2018-03-31T08:14:23.128Z,106.88
2018-03-31T08:15:23.022Z,101.25
2018-03-31T08:16:22.953Z,112.50
2018-03-31T08:17:22.876Z,129.38
2018-03-31T08:18:22.786Z,129.38
2018-03-31T08:19:22.729Z,135.00
2018-03-31T08:20:22.630Z,146.25
2018-03-31T08:21:22.551Z,140.63
2018-03-31T08:22:22.466Z,135.00
2018-03-31T08:23:22.385Z,135.00
2018-03-31T08:24:22.305Z,129.38
2018-03-31T08:25:22.226Z,129.38
2018-03-31T08:26:22.148Z,140.63
2018-03-31T08:27:22.070Z,146.25
2018-03-31T08:28:21.987Z,151.88
2018-03-31T08:29:21.908Z,146.25
2018-03-31T08:30:21.867Z,140.63
2018-03-31T08:31:21.747Z,135.00
2018-03-31T08:32:21.668Z,140.63
2018-03-31T08:33:21.594Z,135.00
2018-03-31T08:34:21.540Z,129.38
2018-03-31T08:35:21.433Z,135.00
2018-03-31T08:36:21.370Z,135.00
2018-03-31T08:37:21.272Z,140.63
2018-03-31T08:38:21.192Z,146.25
2018-03-31T08:39:21.122Z,163.13
2018-03-31T08:40:21.033Z,168.75
2018-03-31T08:41:20.961Z,168.75
2018-03-31T08:42:20.873Z,168.75
2018-03-31T08:43:20.797Z,180.00
2018-03-31T08:44:20.719Z,202.50
2018-03-31T08:45:20.638Z,230.63
2018-03-31T08:48:03.254Z,258.75
2018-03-31T08:49:03.031Z,258.75
2018-03-31T08:50:02.938Z,225.00
2018-03-31T08:51:02.857Z,191.25
2018-03-31T08:52:02.786Z,168.75
2018-03-31T08:53:02.707Z,146.25
2018-03-31T08:54:02.630Z,129.38
2018-03-31T08:55:02.552Z,118.13
2018-03-31T08:56:02.468Z,112.50
2018-03-31T08:57:02.383Z,112.50
2018-03-31T08:58:02.304Z,118.13
2018-03-31T08:59:03.096Z,129.38
2018-03-31T09:00:02.148Z,163.13
2018-03-31T09:01:02.141Z,174.38
2018-03-31T09:02:01.997Z,163.13
2018-03-31T09:03:01.909Z,151.88
2018-03-31T09:04:01.827Z,157.50
2018-03-31T09:05:01.750Z,151.88
2018-03-31T09:06:01.695Z,151.88
2018-03-31T09:07:01.593Z,180.00
2018-03-31T09:08:01.517Z,208.13
2018-03-31T09:09:01.433Z,241.88
2018-03-31T09:10:01.357Z,264.38
2018-03-31T09:11:01.277Z,303.75
2018-03-31T09:12:01.209Z,326.25
2018-03-31T09:13:01.140Z,337.50
2018-03-31T09:14:01.050Z,360.00
2018-03-31T09:15:00.958Z,360.00
2018-03-31T09:16:00.879Z,320.63
2018-03-31T09:17:00.799Z,326.25
2018-03-31T09:18:00.723Z,303.75
2018-03-31T09:19:00.661Z,275.63
2018-03-31T09:20:00.590Z,225.00
2018-03-31T09:21:00.485Z,196.88
2018-03-31T09:22:00.411Z,196.88
2018-03-31T09:23:00.332Z,185.63
2018-03-31T09:24:00.248Z,202.50
2018-03-31T09:25:00.175Z,219.38
2018-03-31T09:26:00.100Z,225.00
2018-03-31T09:27:00.012Z,258.75
2018-03-31T09:27:59.937Z,281.25
2018-03-31T09:28:59.854Z,264.38
2018-03-31T09:29:59.778Z,281.25
2018-03-31T09:31:00.742Z,331.88
2018-03-31T09:31:59.625Z,320.63
2018-03-31T09:32:59.646Z,298.13
2018-03-31T09:33:59.474Z,326.25
2018-03-31T09:34:59.381Z,410.63
2018-03-31T09:35:59.304Z,421.88
2018-03-31T09:36:59.227Z,461.25
2018-03-31T09:37:59.147Z,455.63
2018-03-31T09:38:59.069Z,376.88
2018-03-31T09:39:59.046Z,303.75
2018-03-31T09:40:58.940Z,213.75
2018-03-31T09:41:58.834Z,236.25
2018-03-31T09:42:58.759Z,298.13
2018-03-31T09:43:58.729Z,360.00
2018-03-31T09:44:58.606Z,337.50
2018-03-31T09:45:58.525Z,303.75
2018-03-31T09:46:58.507Z,275.63
2018-03-31T09:48:01.259Z,281.25
2018-03-31T09:48:58.358Z,309.38
2018-03-31T09:49:58.281Z,376.88
2018-03-31T09:50:58.228Z,427.50
2018-03-31T09:51:58.734Z,455.63
2018-03-31T09:52:58.052Z,483.75
2018-03-31T09:53:57.968Z,483.75
2018-03-31T09:54:57.859Z,466.88
2018-03-31T09:55:57.811Z,466.88
2018-03-31T09:56:57.662Z,483.75
2018-03-31T09:57:57.585Z,455.63
2018-03-31T09:58:57.510Z,416.25
2018-03-31T09:59:57.430Z,399.38
2018-03-31T10:00:57.352Z,393.75
2018-03-31T10:01:57.275Z,371.25
2018-03-31T10:02:57.195Z,343.13
2018-03-31T10:03:57.120Z,315.00
2018-03-31T10:04:57.040Z,298.13
2018-03-31T10:05:56.970Z,264.38
2018-03-31T10:06:56.890Z,202.50
2018-03-31T10:07:56.808Z,191.25
2018-03-31T10:08:56.731Z,202.50
2018-03-31T10:09:56.653Z,202.50
2018-03-31T10:10:57.180Z,191.25
2018-03-31T10:11:56.500Z,185.63
2018-03-31T10:12:56.428Z,185.63
2018-03-31T10:13:56.352Z,196.88
2018-03-31T10:14:56.264Z,196.88
2018-03-31T10:15:56.190Z,191.25
2018-03-31T10:16:56.115Z,191.25
2018-03-31T10:17:56.034Z,196.88
2018-03-31T10:18:55.951Z,208.13
2018-03-31T10:19:55.875Z,241.88
2018-03-31T10:20:55.800Z,236.25
2018-03-31T10:21:55.725Z,241.88
2018-03-31T10:22:55.650Z,219.38
2018-03-31T10:23:55.565Z,168.75
2018-03-31T10:24:55.491Z,157.50
2018-03-31T10:25:55.415Z,157.50
2018-03-31T10:26:55.338Z,151.88
2018-03-31T10:27:55.256Z,146.25
2018-03-31T10:28:55.276Z,140.63
2018-03-31T10:29:55.111Z,140.63
2018-03-31T10:30:55.018Z,146.25
2018-03-31T10:31:54.954Z,157.50
2018-03-31T10:32:54.864Z,168.75
2018-03-31T10:33:54.789Z,180.00
2018-03-31T10:34:54.715Z,185.63
2018-03-31T10:35:54.627Z,180.00
2018-03-31T10:36:54.554Z,180.00
2018-03-31T10:37:54.469Z,174.38
2018-03-31T10:38:54.391Z,168.75
2018-03-31T10:39:54.316Z,168.75
2018-03-31T10:40:54.236Z,180.00
2018-03-31T10:41:54.161Z,185.63
2018-03-31T10:42:54.082Z,185.63
2018-03-31T10:43:54.003Z,202.50
2018-03-31T10:44:53.924Z,247.50
2018-03-31T10:45:53.847Z,270.00
2018-03-31T10:46:53.782Z,281.25
2018-03-31T10:47:53.695Z,270.00
2018-03-31T10:48:53.614Z,270.00
2018-03-31T10:49:53.533Z,264.38
2018-03-31T10:50:53.454Z,264.38
2018-03-31T10:51:53.377Z,247.50
2018-03-31T10:52:53.299Z,236.25
2018-03-31T10:53:53.220Z,219.38
2018-03-31T10:54:53.142Z,213.75
2018-03-31T10:55:53.090Z,208.13
2018-03-31T10:56:53.016Z,202.50
2018-03-31T10:57:52.911Z,191.25
2018-03-31T10:58:52.836Z,185.63
2018-03-31T10:59:52.751Z,174.38
2018-03-31T11:00:52.678Z,163.13
2018-03-31T11:01:52.595Z,151.88
2018-03-31T11:02:52.520Z,140.63
2018-03-31T11:03:52.445Z,129.38
2018-03-31T11:04:52.368Z,123.75
2018-03-31T11:05:52.293Z,123.75
2018-03-31T11:06:52.210Z,123.75
2018-03-31T11:07:52.129Z,123.75
2018-03-31T11:08:52.052Z,135.00
2018-03-31T11:09:51.974Z,135.00
2018-03-31T11:10:51.896Z,129.38
2018-03-31T11:11:51.817Z,123.75
2018-03-31T11:12:51.796Z,123.75
2018-03-31T11:13:51.661Z,129.38
2018-03-31T11:14:51.583Z,135.00
2018-03-31T11:15:51.506Z,140.63
2018-03-31T11:16:51.426Z,146.25
2018-03-31T11:17:51.363Z,146.25
2018-03-31T11:18:51.272Z,157.50
2018-03-31T11:19:51.190Z,180.00
2018-03-31T11:20:51.113Z,191.25
2018-03-31T11:21:51.036Z,208.13
2018-03-31T11:22:50.956Z,225.00
2018-03-31T11:23:50.886Z,247.50
2018-03-31T11:24:50.798Z,258.75
2018-03-31T11:25:50.726Z,258.75
2018-03-31T11:26:50.644Z,247.50
2018-03-31T11:27:50.566Z,253.13
2018-03-31T11:28:50.486Z,258.75
2018-03-31T11:29:50.419Z,292.50
2018-03-31T11:30:50.335Z,331.88
2018-03-31T11:31:50.251Z,343.13
2018-03-31T11:32:50.177Z,354.38
2018-03-31T11:33:50.097Z,376.88
2018-03-31T11:34:50.025Z,376.88
2018-03-31T11:35:49.945Z,354.38
2018-03-31T11:36:49.870Z,337.50
2018-03-31T11:37:49.787Z,331.88
2018-03-31T11:38:49.706Z,315.00
2018-03-31T11:39:49.634Z,281.25
2018-03-31T11:40:49.549Z,258.75
2018-03-31T11:41:49.487Z,225.00
2018-03-31T11:42:49.423Z,196.88
2018-03-31T11:43:49.316Z,180.00
2018-03-31T11:44:49.242Z,168.75
2018-03-31T11:45:49.160Z,157.50
2018-03-31T11:46:49.081Z,146.25
2018-03-31T11:47:49.005Z,146.25
2018-03-31T11:48:48.926Z,151.88
2018-03-31T11:49:48.850Z,157.50
2018-03-31T11:50:48.772Z,157.50
2018-03-31T11:51:48.694Z,174.38
2018-03-31T11:52:48.616Z,174.38
2018-03-31T11:53:48.537Z,180.00
2018-03-31T11:54:48.458Z,185.63
2018-03-31T11:55:48.381Z,180.00
2018-03-31T11:56:48.304Z,174.38
2018-03-31T11:57:48.226Z,180.00
2018-03-31T11:58:48.152Z,180.00
2018-03-31T11:59:48.072Z,185.63
2018-03-31T12:00:48.005Z,180.00
2018-03-31T12:01:47.913Z,174.38
2018-03-31T12:02:47.837Z,180.00
2018-03-31T12:03:47.760Z,191.25
2018-03-31T12:04:47.680Z,191.25
2018-03-31T12:05:47.605Z,191.25
2018-03-31T12:06:47.524Z,174.38
2018-03-31T12:07:47.449Z,168.75
2018-03-31T12:08:47.367Z,168.75
2018-03-31T12:09:47.296Z,168.75
2018-03-31T12:10:47.212Z,146.25
2018-03-31T12:11:47.132Z,123.75
2018-03-31T12:12:47.058Z,118.13
2018-03-31T12:13:46.982Z,112.50
2018-03-31T12:14:46.900Z,112.50
2018-03-31T12:15:46.839Z,123.75
2018-03-31T12:18:29.360Z,185.63
2018-03-31T12:19:29.229Z,236.25
2018-03-31T12:21:33.062Z,348.75
2018-03-31T12:22:32.941Z,376.88
2018-03-31T12:24:36.933Z,348.75
2018-03-31T12:25:36.857Z,337.50
2018-03-31T12:26:36.774Z,315.00
2018-03-31T12:27:36.695Z,331.88
2018-03-31T12:28:36.617Z,365.63
2018-03-31T12:29:36.560Z,421.88
2018-03-31T12:30:36.460Z,551.25
2018-03-31T12:31:36.385Z,596.25
2018-03-31T12:32:36.308Z,511.88
2018-03-31T12:33:36.238Z,354.38
2018-03-31T12:34:36.151Z,326.25
2018-03-31T12:35:36.091Z,303.75
2018-03-31T12:36:36.002Z,292.50
2018-03-31T12:37:35.921Z,286.88
2018-03-31T12:38:35.843Z,281.25
2018-03-31T12:39:35.777Z,275.63
2018-03-31T12:40:35.687Z,264.38
2018-03-31T12:41:35.614Z,264.38
2018-03-31T12:42:35.559Z,270.00
2018-03-31T12:43:35.459Z,270.00
2018-03-31T12:44:35.379Z,258.75
2018-03-31T12:45:35.318Z,241.88
2018-03-31T12:46:35.262Z,225.00
2018-03-31T12:47:35.148Z,213.75
2018-03-31T12:48:35.070Z,202.50
2018-03-31T12:49:34.992Z,191.25
2018-03-31T12:50:34.921Z,185.63
2018-03-31T12:51:34.838Z,185.63
2018-03-31T12:52:34.762Z,191.25
2018-03-31T12:53:34.688Z,185.63
2018-03-31T12:54:34.608Z,191.25
2018-03-31T12:55:34.529Z,191.25
2018-03-31T12:56:34.452Z,196.88
2018-03-31T12:57:34.378Z,202.50